sensor_id;sensor_type;location;lat;lon;timestamp;P1;durP1;ratioP1;P2;durP2;ratioP2
48367;SDS011;34173;47.446;18.912;2023-05-20T08:24:16;8.15;;;5.12;;
48367;SDS011;34173;47.446;18.912;2023-05-20T08:29:11;6.97;;;5.07;;
48367;SDS011;34173;47.446;18.912;2023-05-20T08:31:38;7.68;;;5.25;;
48367;SDS011;34173;47.446;18.912;2023-05-20T08:34:06;7.25;;;5.35;;
48367;SDS011;34173;47.446;18.912;2023-05-20T08:36:34;7.55;;;5.07;;
48367;SDS011;34173;47.446;18.912;2023-05-20T08:39:02;8.10;;;5.20;;
48367;SDS011;34173;47.446;18.912;2023-05-20T08:41:30;8.63;;;5.43;;
48367;SDS011;34173;47.446;18.912;2023-05-20T08:43:58;8.50;;;5.28;;
48367;SDS011;34173;47.446;18.912;2023-05-20T08:46:27;9.00;;;5.80;;
48367;SDS011;34173;47.446;18.912;2023-05-20T09:13:38;11.12;;;5.60;;
48367;SDS011;34173;47.446;18.912;2023-05-20T09:16:05;8.20;;;5.80;;
48367;SDS011;34173;47.446;18.912;2023-05-20T09:18:36;8.13;;;5.97;;
48367;SDS011;34173;47.446;18.912;2023-05-20T09:21:05;9.40;;;6.50;;
48367;SDS011;34173;47.446;18.912;2023-05-20T09:23:35;9.15;;;6.32;;
48367;SDS011;34173;47.446;18.912;2023-05-20T09:26:04;9.97;;;6.33;;
48367;SDS011;34173;47.446;18.912;2023-05-20T09:28:32;9.50;;;6.10;;
48367;SDS011;34173;47.446;18.912;2023-05-20T09:31:00;11.18;;;6.82;;
48367;SDS011;34173;47.446;18.912;2023-05-20T09:33:28;11.23;;;6.53;;
48367;SDS011;34173;47.446;18.912;2023-05-20T09:36:03;13.32;;;6.40;;
48367;SDS011;34173;47.446;18.912;2023-05-20T09:38:32;10.80;;;6.28;;
48367;SDS011;34173;47.446;18.912;2023-05-20T09:41:05;10.20;;;6.15;;
48367;SDS011;34173;47.446;18.912;2023-05-20T09:43:35;10.90;;;6.17;;
48367;SDS011;34173;47.446;18.912;2023-05-20T09:46:05;9.37;;;6.33;;
48367;SDS011;34173;47.446;18.912;2023-05-20T09:48:34;8.80;;;6.20;;
48367;SDS011;34173;47.446;18.912;2023-05-20T09:51:04;8.93;;;6.28;;
48367;SDS011;34173;47.446;18.912;2023-05-20T09:53:32;8.70;;;6.32;;
48367;SDS011;34173;47.446;18.912;2023-05-20T09:56:00;9.30;;;6.40;;
48367;SDS011;34173;47.446;18.912;2023-05-20T09:58:28;9.38;;;6.20;;
48367;SDS011;34173;47.446;18.912;2023-05-20T10:00:56;9.23;;;6.17;;
48367;SDS011;34173;47.446;18.912;2023-05-20T10:03:24;11.50;;;6.17;;
48367;SDS011;34173;47.446;18.912;2023-05-20T10:06:19;9.25;;;5.97;;
48367;SDS011;34173;47.446;18.912;2023-05-20T10:09:10;8.45;;;5.93;;
48367;SDS011;34173;47.446;18.912;2023-05-20T10:11:57;11.00;;;6.00;;
48367;SDS011;34173;47.446;18.912;2023-05-20T10:20:05;10.97;;;6.30;;
48367;SDS011;34173;47.446;18.912;2023-05-20T10:22:35;10.63;;;5.85;;
48367;SDS011;34173;47.446;18.912;2023-05-20T10:25:08;8.30;;;6.05;;
48367;SDS011;34173;47.446;18.912;2023-05-20T10:27:45;10.32;;;6.20;;
48367;SDS011;34173;47.446;18.912;2023-05-20T10:30:20;8.70;;;6.03;;
48367;SDS011;34173;47.446;18.912;2023-05-20T10:32:51;8.32;;;6.12;;
48367;SDS011;34173;47.446;18.912;2023-05-20T10:35:21;8.40;;;5.80;;
48367;SDS011;34173;47.446;18.912;2023-05-20T10:37:52;9.93;;;5.70;;
48367;SDS011;34173;47.446;18.912;2023-05-20T10:40:21;9.07;;;6.15;;
48367;SDS011;34173;47.446;18.912;2023-05-20T10:42:49;7.57;;;5.60;;
48367;SDS011;34173;47.446;18.912;2023-05-20T10:45:26;10.30;;;6.53;;
48367;SDS011;34173;47.446;18.912;2023-05-20T10:47:55;9.68;;;6.15;;
48367;SDS011;34173;47.446;18.912;2023-05-20T10:50:34;10.32;;;6.40;;
48367;SDS011;34173;47.446;18.912;2023-05-20T10:53:06;9.30;;;6.03;;
48367;SDS011;34173;47.446;18.912;2023-05-20T10:55:48;9.35;;;5.70;;
48367;SDS011;34173;47.446;18.912;2023-05-20T10:58:21;9.57;;;6.30;;
48367;SDS011;34173;47.446;18.912;2023-05-20T11:00:52;9.32;;;5.55;;
48367;SDS011;34173;47.446;18.912;2023-05-20T11:03:21;9.45;;;6.12;;
48367;SDS011;34173;47.446;18.912;2023-05-20T11:05:49;9.35;;;6.22;;
48367;SDS011;34173;47.446;18.912;2023-05-20T11:08:17;9.85;;;5.95;;
48367;SDS011;34173;47.446;18.912;2023-05-20T11:10:55;9.43;;;6.10;;
48367;SDS011;34173;47.446;18.912;2023-05-20T11:13:25;9.85;;;6.15;;
48367;SDS011;34173;47.446;18.912;2023-05-20T11:15:53;8.15;;;6.22;;
48367;SDS011;34173;47.446;18.912;2023-05-20T11:18:21;8.50;;;5.62;;
48367;SDS011;34173;47.446;18.912;2023-05-20T11:20:49;9.77;;;5.95;;
48367;SDS011;34173;47.446;18.912;2023-05-20T11:23:17;10.82;;;6.65;;
48367;SDS011;34173;47.446;18.912;2023-05-20T11:25:45;7.60;;;6.10;;
48367;SDS011;34173;47.446;18.912;2023-05-20T11:28:13;9.40;;;5.97;;
48367;SDS011;34173;47.446;18.912;2023-05-20T11:30:41;8.38;;;6.28;;
48367;SDS011;34173;47.446;18.912;2023-05-20T11:33:12;8.45;;;6.05;;
48367;SDS011;34173;47.446;18.912;2023-05-20T11:35:47;8.82;;;6.45;;
48367;SDS011;34173;47.446;18.912;2023-05-20T11:38:19;9.80;;;6.22;;
48367;SDS011;34173;47.446;18.912;2023-05-20T11:40:52;8.77;;;5.90;;
48367;SDS011;34173;47.446;18.912;2023-05-20T11:43:22;8.70;;;6.60;;
48367;SDS011;34173;47.446;18.912;2023-05-20T11:45:53;8.75;;;6.10;;
48367;SDS011;34173;47.446;18.912;2023-05-20T11:48:22;8.80;;;6.55;;
48367;SDS011;34173;47.446;18.912;2023-05-20T11:50:51;8.77;;;6.03;;
48367;SDS011;34173;47.446;18.912;2023-05-20T11:53:22;8.20;;;6.12;;
48367;SDS011;34173;47.446;18.912;2023-05-20T11:55:54;10.10;;;6.30;;
48367;SDS011;34173;47.446;18.912;2023-05-20T11:58:23;9.57;;;6.22;;
48367;SDS011;34173;47.446;18.912;2023-05-20T12:00:51;9.07;;;6.10;;
48367;SDS011;34173;47.446;18.912;2023-05-20T12:03:35;11.70;;;6.45;;
48367;SDS011;34173;47.446;18.912;2023-05-20T12:06:03;10.60;;;6.47;;
48367;SDS011;34173;47.446;18.912;2023-05-20T12:08:31;9.13;;;6.20;;
48367;SDS011;34173;47.446;18.912;2023-05-20T12:10:59;8.35;;;6.12;;
48367;SDS011;34173;47.446;18.912;2023-05-20T12:13:26;8.53;;;6.37;;
48367;SDS011;34173;47.446;18.912;2023-05-20T12:15:53;9.95;;;6.60;;
48367;SDS011;34173;47.446;18.912;2023-05-20T12:18:21;9.52;;;6.32;;
48367;SDS011;34173;47.446;18.912;2023-05-20T12:20:50;8.70;;;6.30;;
48367;SDS011;34173;47.446;18.912;2023-05-20T12:23:17;8.38;;;6.32;;
48367;SDS011;34173;47.446;18.912;2023-05-20T12:25:45;8.60;;;6.57;;
48367;SDS011;34173;47.446;18.912;2023-05-20T12:28:15;9.10;;;6.18;;
48367;SDS011;34173;47.446;18.912;2023-05-20T12:30:43;10.27;;;6.70;;
48367;SDS011;34173;47.446;18.912;2023-05-20T12:33:11;10.75;;;6.50;;
48367;SDS011;34173;47.446;18.912;2023-05-20T12:35:39;9.02;;;6.25;;
48367;SDS011;34173;47.446;18.912;2023-05-20T12:38:08;9.65;;;6.30;;
48367;SDS011;34173;47.446;18.912;2023-05-20T12:40:36;8.85;;;6.18;;
48367;SDS011;34173;47.446;18.912;2023-05-20T12:43:04;9.18;;;6.40;;
48367;SDS011;34173;47.446;18.912;2023-05-20T12:45:32;8.27;;;6.20;;
48367;SDS011;34173;47.446;18.912;2023-05-20T12:48:00;11.20;;;6.87;;
48367;SDS011;34173;47.446;18.912;2023-05-20T12:50:28;8.70;;;6.72;;
48367;SDS011;34173;47.446;18.912;2023-05-20T12:52:55;10.05;;;6.62;;
48367;SDS011;34173;47.446;18.912;2023-05-20T12:55:23;7.70;;;6.10;;
48367;SDS011;34173;47.446;18.912;2023-05-20T12:57:57;8.52;;;6.50;;
48367;SDS011;34173;47.446;18.912;2023-05-20T13:00:24;8.27;;;6.22;;
48367;SDS011;34173;47.446;18.912;2023-05-20T13:02:52;9.88;;;6.82;;
48367;SDS011;34173;47.446;18.912;2023-05-20T13:05:21;7.80;;;6.20;;
48367;SDS011;34173;47.446;18.912;2023-05-20T13:07:49;10.20;;;6.47;;
48367;SDS011;34173;47.446;18.912;2023-05-20T13:10:16;9.07;;;6.55;;
48367;SDS011;34173;47.446;18.912;2023-05-20T13:12:44;8.73;;;6.37;;
48367;SDS011;34173;47.446;18.912;2023-05-20T13:15:12;9.93;;;6.78;;
48367;SDS011;34173;47.446;18.912;2023-05-20T13:17:40;9.38;;;6.70;;
48367;SDS011;34173;47.446;18.912;2023-05-20T13:20:11;11.02;;;6.87;;
48367;SDS011;34173;47.446;18.912;2023-05-20T17:38:54;12.37;;;5.85;;
48367;SDS011;34173;47.446;18.912;2023-05-20T17:41:21;7.60;;;5.72;;
48367;SDS011;34173;47.446;18.912;2023-05-20T17:43:49;13.40;;;7.10;;
48367;SDS011;34173;47.446;18.912;2023-05-20T17:46:17;12.05;;;6.40;;
48367;SDS011;34173;47.446;18.912;2023-05-20T19:00:12;8.85;;;5.97;;
48367;SDS011;34173;47.446;18.912;2023-05-20T19:02:41;10.85;;;6.90;;
48367;SDS011;34173;47.446;18.912;2023-05-20T19:05:10;10.15;;;7.05;;
48367;SDS011;34173;47.446;18.912;2023-05-20T19:10:06;12.37;;;7.47;;
48367;SDS011;34173;47.446;18.912;2023-05-20T19:12:34;10.95;;;7.45;;
48367;SDS011;34173;47.446;18.912;2023-05-20T19:15:01;12.98;;;7.95;;
48367;SDS011;34173;47.446;18.912;2023-05-20T19:17:31;10.18;;;7.45;;
48367;SDS011;34173;47.446;18.912;2023-05-20T19:19:59;12.95;;;8.20;;
48367;SDS011;34173;47.446;18.912;2023-05-20T19:22:26;12.07;;;9.27;;
48367;SDS011;34173;47.446;18.912;2023-05-20T19:27:21;15.45;;;9.40;;
48367;SDS011;34173;47.446;18.912;2023-05-20T19:47:01;15.05;;;10.07;;
48367;SDS011;34173;47.446;18.912;2023-05-20T19:49:28;17.30;;;12.25;;
48367;SDS011;34173;47.446;18.912;2023-05-20T19:54:25;18.62;;;11.88;;
48367;SDS011;34173;47.446;18.912;2023-05-20T19:56:53;18.45;;;13.30;;
48367;SDS011;34173;47.446;18.912;2023-05-20T19:59:20;19.33;;;13.50;;
48367;SDS011;34173;47.446;18.912;2023-05-20T20:01:48;23.05;;;15.68;;
48367;SDS011;34173;47.446;18.912;2023-05-20T20:04:16;19.98;;;15.18;;
48367;SDS011;34173;47.446;18.912;2023-05-20T20:06:44;21.80;;;14.93;;
48367;SDS011;34173;47.446;18.912;2023-05-20T20:09:13;20.08;;;14.07;;
48367;SDS011;34173;47.446;18.912;2023-05-20T20:11:40;20.85;;;14.60;;
48367;SDS011;34173;47.446;18.912;2023-05-20T20:14:09;19.58;;;13.85;;
48367;SDS011;34173;47.446;18.912;2023-05-20T20:16:37;19.77;;;13.57;;
48367;SDS011;34173;47.446;18.912;2023-05-20T20:19:05;21.25;;;14.02;;
48367;SDS011;34173;47.446;18.912;2023-05-20T20:21:32;19.75;;;12.43;;
